Terminal Aerodrome Forecast
Issued by NWS

Home | Current Version | Previous Version | Text Only | Print | Product List | Glossary On
Versions: 1 2 3 4 5 6 7 8 9 10 11 12 13 14 15 16 17 18 19 20 21 22 23 24 25 26 27 28
000
FTUS43 KPAH 211500 AAB
TAFOWB
TAF AMD
KOWB 211527Z 2115/2212 30012G16KT P6SM BKN015 BKN080
     FM211600 32012G18KT P6SM SKC
     FM220000 34005KT P6SM SKC=

USA.gov is the U.S. government's official web portal to all federal, state and local government web resources and services.